Time;durP1;ratioP1;P1;durP2;ratioP2;P2;SDS_P1;SDS_P2;PMS_P1;PMS_P2;Temp;Humidity;BMP_temperature;BMP_pressure;BME280_temperature;BME280_humidity;BME280_pressure;Samples;Min_cycle;Max_cycle;Signal;HPM_P1;HPM_P2
2021/12/20 00:00:15;;;;;;;1.90;0.60;;;;;;;0.97;80.90;102034.25;5019209;28;20029;-80
2021/12/20 00:02:43;;;;;;;2.97;0.55;;;;;;;0.97;81.03;102036.88;5031619;28;20025;-81
2021/12/20 00:05:09;;;;;;;6.07;0.70;;;;;;;1.03;80.96;102047.66;5012961;28;20041;-81
2021/12/20 00:07:35;;;;;;;1.63;0.80;;;;;;;1.11;81.25;102050.38;5037000;28;20072;-81
2021/12/20 00:10:01;;;;;;;3.38;0.73;;;;;;;1.20;81.19;102051.22;5015780;28;20029;-81
2021/12/20 00:12:27;;;;;;;1.95;0.57;;;;;;;1.18;80.77;102045.28;5019739;28;20032;-81
2021/12/20 00:14:52;;;;;;;2.53;0.57;;;;;;;1.15;80.68;102041.16;5014548;28;20029;-81
2021/12/20 00:17:17;;;;;;;2.88;0.82;;;;;;;1.03;80.79;102036.25;5019483;28;20030;-81
2021/12/20 00:19:43;;;;;;;1.90;0.50;;;;;;;0.97;81.01;102042.16;5015681;28;20021;-82
2021/12/20 00:22:08;;;;;;;1.52;0.43;;;;;;;0.96;80.97;102051.06;5017237;28;20099;-82
2021/12/20 00:24:34;;;;;;;1.30;0.47;;;;;;;0.97;81.19;102052.72;5011343;28;20033;-81
2021/12/20 00:27:01;;;;;;;1.45;0.43;;;;;;;0.95;81.06;102052.06;5020358;28;20021;-81
2021/12/20 00:29:27;;;;;;;1.95;0.52;;;;;;;1.05;81.30;102055.41;5012784;28;20029;-82
2021/12/20 00:31:52;;;;;;;4.57;0.60;;;;;;;0.94;80.92;102053.88;5011838;28;20397;-81
2021/12/20 00:34:18;;;;;;;5.57;0.70;;;;;;;1.00;81.39;102049.78;5011275;28;20084;-81
2021/12/20 00:36:43;;;;;;;1.27;0.50;;;;;;;0.95;80.70;102049.41;5013006;28;20041;-81
2021/12/20 00:41:53;;;;;;;0.88;0.30;;;;;;;0.94;81.48;102043.31;5035150;28;20029;-81
2021/12/20 00:44:18;;;;;;;1.23;0.60;;;;;;;0.96;81.24;102043.16;5035742;28;20029;-81
2021/12/20 00:46:44;;;;;;;2.03;1.02;;;;;;;0.98;81.00;102059.66;5013262;28;20551;-81
2021/12/20 00:49:09;;;;;;;3.17;0.60;;;;;;;0.99;81.17;102058.69;5014707;28;20060;-82
2021/12/20 00:51:35;;;;;;;2.35;0.70;;;;;;;1.02;81.26;102061.81;5012574;28;20476;-81
2021/12/20 00:54:00;;;;;;;1.75;0.70;;;;;;;1.06;80.99;102055.25;5016700;28;20021;-81
2021/12/20 00:56:26;;;;;;;3.80;0.75;;;;;;;1.04;80.89;102070.41;5013372;28;20032;-81
2021/12/20 00:58:51;;;;;;;2.33;0.52;;;;;;;1.11;80.43;102066.19;5014215;28;20021;-81
2021/12/20 01:01:17;;;;;;;4.00;1.52;;;;;;;0.99;80.69;102045.47;5019192;28;20025;-81
2021/12/20 01:03:42;;;;;;;2.20;0.60;;;;;;;0.97;80.94;102058.81;5039036;28;20048;-81
2021/12/20 01:06:08;;;;;;;1.05;0.60;;;;;;;0.95;80.74;102060.78;5016865;28;20057;-80
2021/12/20 01:08:36;;;;;;;0.85;0.40;;;;;;;0.97;80.93;102069.38;5017710;28;20016;-81
2021/12/20 01:11:03;;;;;;;2.17;0.55;;;;;;;0.84;81.47;102061.84;5018668;28;20113;-81
2021/12/20 01:13:30;;;;;;;2.90;0.75;;;;;;;0.90;81.66;102048.06;5017863;28;20091;-81
2021/12/20 01:16:00;;;;;;;2.75;0.47;;;;;;;0.93;81.33;102061.94;5020355;28;20108;-81
2021/12/20 01:18:25;;;;;;;2.35;0.85;;;;;;;0.92;81.25;102060.28;5037374;28;20020;-80
2021/12/20 01:20:51;;;;;;;3.63;0.80;;;;;;;0.90;81.32;102061.25;5011066;28;20053;-80
2021/12/20 01:23:18;;;;;;;3.30;0.68;;;;;;;0.90;81.30;102063.91;5019760;28;20029;-81
2021/12/20 01:25:44;;;;;;;1.23;0.60;;;;;;;0.96;81.14;102062.44;5016047;28;20034;-81
2021/12/20 01:28:10;;;;;;;5.35;0.70;;;;;;;1.01;81.22;102069.91;5018145;28;20032;-81
2021/12/20 01:30:37;;;;;;;0.52;0.52;;;;;;;1.03;81.25;102067.94;5016125;28;20044;-81
2021/12/20 01:33:03;;;;;;;2.10;0.50;;;;;;;1.04;80.86;102062.50;5016743;28;20029;-81
2021/12/20 01:35:28;;;;;;;5.75;0.95;;;;;;;1.05;80.61;102065.97;5015631;28;20389;-81
2021/12/20 01:37:55;;;;;;;11.35;1.13;;;;;;;1.08;80.59;102071.78;5017707;28;20469;-81
2021/12/20 01:40:22;;;;;;;1.88;0.57;;;;;;;1.07;80.59;102074.56;5018531;28;20021;-80
2021/12/20 01:42:52;;;;;;;1.52;0.70;;;;;;;1.05;80.70;102065.97;5015085;28;20133;-82
2021/12/20 01:45:22;;;;;;;0.70;0.60;;;;;;;1.03;80.70;102078.50;5031835;28;20025;-81
2021/12/20 01:47:51;;;;;;;1.10;0.57;;;;;;;1.03;80.57;102075.84;5027916;28;20032;-81
2021/12/20 01:53:02;;;;;;;2.25;0.47;;;;;;;0.99;80.54;102085.88;5033467;28;20139;-81
2021/12/20 01:55:27;;;;;;;6.80;1.42;;;;;;;1.01;80.70;102088.38;5033584;28;20112;-81
2021/12/20 01:57:53;;;;;;;2.45;0.70;;;;;;;0.93;80.45;102090.97;5012866;28;20496;-81
2021/12/20 02:00:25;;;;;;;3.90;1.63;;;;;;;0.88;80.73;102086.94;5010866;28;20032;-81
2021/12/20 02:02:57;;;;;;;1.80;0.50;;;;;;;0.89;81.06;102090.41;5006839;28;20121;-81
2021/12/20 02:05:34;;;;;;;2.30;0.70;;;;;;;0.90;81.12;102085.00;5009789;28;21007;-81
2021/12/20 02:08:03;;;;;;;3.92;0.77;;;;;;;0.89;81.20;102087.78;5020338;28;20067;-83
2021/12/20 02:10:30;;;;;;;5.72;1.17;;;;;;;0.82;81.27;102086.72;5017187;28;20029;-80
2021/12/20 02:12:56;;;;;;;4.25;0.85;;;;;;;0.78;81.18;102085.38;5012769;28;20018;-81
2021/12/20 02:15:21;;;;;;;2.33;1.02;;;;;;;0.75;81.31;102081.25;5013333;28;20400;-81
2021/12/20 02:17:47;;;;;;;2.72;0.57;;;;;;;0.60;81.73;102080.94;5029668;28;20620;-81
2021/12/20 02:20:30;;;;;;;1.00;0.60;;;;;;;0.64;82.26;102091.19;5035479;28;20025;-81
2021/12/20 02:22:57;;;;;;;5.10;0.75;;;;;;;0.57;81.70;102083.06;5017656;28;20045;-80
2021/12/20 02:25:25;;;;;;;1.20;0.65;;;;;;;0.59;81.99;102089.00;5015168;28;20049;-82
2021/12/20 02:27:51;;;;;;;1.70;0.90;;;;;;;0.64;82.29;102102.56;5016811;28;20021;-81
2021/12/20 02:38:28;;;;;;;1.98;0.60;;;;;;;0.83;81.46;102091.84;5031601;28;20095;-81
2021/12/20 02:41:06;;;;;;;1.55;0.60;;;;;;;0.86;81.01;102088.91;5014957;28;20014;-81
2021/12/20 02:43:36;;;;;;;2.80;0.85;;;;;;;0.65;81.34;102088.38;5015200;28;20031;-82
2021/12/20 02:46:04;;;;;;;4.07;0.70;;;;;;;0.70;81.42;102083.47;5016902;28;20048;-81
2021/12/20 02:48:30;;;;;;;2.90;0.68;;;;;;;0.68;81.81;102084.63;5028018;28;20585;-81
2021/12/20 02:50:57;;;;;;;5.60;1.10;;;;;;;0.69;81.57;102086.28;5027383;28;20105;-81
2021/12/20 02:53:23;;;;;;;2.97;0.63;;;;;;;0.73;81.45;102088.47;5033507;28;20105;-81
2021/12/20 02:55:48;;;;;;;4.00;0.65;;;;;;;0.81;81.29;102096.47;5030011;28;20119;-81
2021/12/20 02:58:14;;;;;;;3.42;0.82;;;;;;;0.86;81.16;102102.09;5005575;28;20456;-81
2021/12/20 03:00:40;;;;;;;1.50;0.80;;;;;;;0.77;81.13;102097.75;5017111;28;20434;-81
2021/12/20 03:03:07;;;;;;;2.85;0.52;;;;;;;0.81;81.34;102101.72;5023229;28;20041;-81
2021/12/20 03:05:33;;;;;;;2.28;0.60;;;;;;;0.83;81.38;102091.84;5016409;28;20503;-81
2021/12/20 03:07:59;;;;;;;2.58;0.82;;;;;;;0.74;81.22;102095.41;5021371;28;20104;-81
2021/12/20 03:10:26;;;;;;;3.05;0.95;;;;;;;0.72;81.25;102092.09;5018616;28;20206;-81
2021/12/20 03:12:52;;;;;;;4.13;0.75;;;;;;;0.67;81.79;102083.78;5019115;28;20080;-81
2021/12/20 03:15:23;;;;;;;1.45;0.63;;;;;;;0.69;81.52;102088.91;5019770;28;20028;-81
2021/12/20 03:17:52;;;;;;;5.55;0.88;;;;;;;0.73;81.81;102093.75;5014672;28;20026;-81
2021/12/20 03:20:20;;;;;;;3.92;0.70;;;;;;;0.68;81.60;102111.00;5016435;28;20035;-81
2021/12/20 03:22:46;;;;;;;2.30;0.73;;;;;;;0.61;81.57;102108.13;5012790;28;20021;-81
2021/12/20 03:25:12;;;;;;;7.78;0.82;;;;;;;0.48;82.13;102105.84;5025032;28;20424;-80
2021/12/20 03:27:38;;;;;;;2.33;0.88;;;;;;;0.48;82.02;102103.22;5017005;28;20026;-80
2021/12/20 03:30:05;;;;;;;9.02;1.05;;;;;;;0.50;82.32;102103.06;5019178;28;20043;-81
2021/12/20 03:32:31;;;;;;;2.47;0.70;;;;;;;0.46;82.31;102110.44;5031085;28;20025;-80
2021/12/20 03:34:57;;;;;;;4.85;0.85;;;;;;;0.50;82.26;102114.44;5014209;28;20033;-81
2021/12/20 03:37:22;;;;;;;3.08;0.88;;;;;;;0.50;82.32;102114.44;5016966;28;20089;-81
2021/12/20 03:39:48;;;;;;;11.70;1.25;;;;;;;0.52;82.30;102116.94;5014333;28;20033;-81
2021/12/20 03:42:13;;;;;;;3.85;0.73;;;;;;;0.57;82.45;102112.88;5021392;28;20022;-81
2021/12/20 03:44:44;;;;;;;4.63;0.75;;;;;;;0.58;82.05;102116.34;5022892;28;20638;-81
2021/12/20 03:47:11;;;;;;;2.85;1.75;;;;;;;0.54;82.11;102115.81;5016764;28;20038;-81
2021/12/20 03:49:36;;;;;;;1.10;0.68;;;;;;;0.60;82.03;102124.94;5012950;28;20041;-80
2021/12/20 03:52:04;;;;;;;4.18;0.75;;;;;;;0.66;81.86;102134.06;5021941;28;20162;-80
2021/12/20 03:54:30;;;;;;;4.18;0.90;;;;;;;0.70;81.50;102146.78;5022143;28;20625;-81
2021/12/20 03:56:55;;;;;;;5.72;0.90;;;;;;;0.75;81.50;102134.00;5039178;28;20480;-81
2021/12/20 03:59:21;;;;;;;4.20;0.80;;;;;;;0.73;81.68;102135.97;5017592;28;20047;-80
2021/12/20 04:01:47;;;;;;;4.13;1.05;;;;;;;0.66;81.58;102129.59;5044561;28;20071;-80
2021/12/20 04:04:12;;;;;;;4.88;0.70;;;;;;;0.64;81.69;102133.38;5022314;28;20033;-80
2021/12/20 04:06:38;;;;;;;7.88;0.80;;;;;;;0.63;81.69;102143.09;5024728;28;20044;-81
2021/12/20 04:09:05;;;;;;;3.83;0.90;;;;;;;0.58;81.89;102146.19;5023136;28;20025;-81
2021/12/20 04:11:31;;;;;;;4.85;0.77;;;;;;;0.59;81.75;102144.38;5015077;28;20017;-81
2021/12/20 04:13:57;;;;;;;1.67;0.80;;;;;;;0.63;81.73;102139.63;5017752;28;20036;-80
2021/12/20 04:16:23;;;;;;;2.30;0.60;;;;;;;0.57;81.92;102131.34;5041612;28;20511;-81
2021/12/20 04:18:49;;;;;;;3.35;1.15;;;;;;;0.62;81.84;102132.72;5019175;28;20033;-81
2021/12/20 04:21:14;;;;;;;2.28;0.60;;;;;;;0.65;81.87;102138.50;5022247;28;20099;-80
2021/12/20 04:23:40;;;;;;;3.33;0.90;;;;;;;0.57;81.88;102135.78;5027372;28;20025;-81
2021/12/20 04:26:06;;;;;;;3.42;0.70;;;;;;;0.56;82.11;102140.25;5017308;28;20026;-81
2021/12/20 04:28:31;;;;;;;2.17;0.70;;;;;;;0.54;81.71;102142.19;5009393;28;20025;-81
2021/12/20 04:30:57;;;;;;;3.63;0.70;;;;;;;0.52;82.06;102140.66;5011199;28;20145;-80
2021/12/20 04:33:22;;;;;;;3.47;0.80;;;;;;;0.57;81.80;102155.09;5011788;28;20040;-81
2021/12/20 04:35:48;;;;;;;5.63;0.68;;;;;;;0.53;82.18;102150.22;5019986;28;20036;-81
2021/12/20 04:38:14;;;;;;;2.75;0.70;;;;;;;0.54;82.18;102150.13;5019271;28;20108;-81
2021/12/20 04:40:39;;;;;;;2.63;0.73;;;;;;;0.53;81.94;102147.59;5030094;28;20001;-82
2021/12/20 04:43:06;;;;;;;4.85;1.13;;;;;;;0.57;81.99;102144.53;5030165;28;20025;-82
2021/12/20 04:45:33;;;;;;;4.18;0.70;;;;;;;0.49;82.00;102148.88;5032543;28;20025;-80
2021/12/20 04:47:59;;;;;;;1.77;0.95;;;;;;;0.50;82.12;102150.53;5040030;28;20043;-81
2021/12/20 04:50:28;;;;;;;2.78;0.60;;;;;;;0.50;82.21;102151.38;5018941;28;20017;-81
2021/12/20 04:52:55;;;;;;;3.00;0.82;;;;;;;0.39;82.47;102145.47;5026837;28;20025;-80
2021/12/20 04:55:22;;;;;;;4.85;0.70;;;;;;;0.48;82.23;102147.22;5021529;28;20384;-81
2021/12/20 04:57:48;;;;;;;9.38;1.48;;;;;;;0.53;82.11;102148.44;5019957;28;20051;-81
2021/12/20 05:00:18;;;;;;;1.83;0.93;;;;;;;0.48;82.43;102148.03;5030062;28;20059;-81
2021/12/20 05:02:44;;;;;;;3.92;0.85;;;;;;;0.52;82.29;102159.13;5020346;28;20021;-81
2021/12/20 05:05:10;;;;;;;3.58;1.08;;;;;;;0.62;81.91;102154.63;5021953;28;20033;-81
2021/12/20 05:07:38;;;;;;;3.22;0.70;;;;;;;0.62;81.95;102154.63;5021651;28;20021;-81
2021/12/20 05:10:08;;;;;;;3.33;1.00;;;;;;;0.62;81.74;102159.91;5019405;28;20080;-82
2021/12/20 05:12:33;;;;;;;6.97;1.08;;;;;;;0.61;81.69;102158.25;5021270;28;20151;-80
2021/12/20 05:14:59;;;;;;;4.68;0.65;;;;;;;0.62;81.56;102157.28;5020621;28;20028;-81
2021/12/20 05:17:24;;;;;;;2.05;0.70;;;;;;;0.67;81.53;102157.66;5025148;28;20032;-81
2021/12/20 05:19:50;;;;;;;1.30;1.10;;;;;;;0.67;81.53;102167.38;5013315;28;20045;-81
2021/12/20 05:22:15;;;;;;;5.50;1.42;;;;;;;0.68;81.04;102166.38;5020365;28;20024;-81
2021/12/20 05:24:41;;;;;;;2.17;0.82;;;;;;;0.67;81.49;102168.19;5020863;28;20032;-80
2021/12/20 05:27:06;;;;;;;7.97;2.72;;;;;;;0.64;81.21;102172.94;5027177;28;20058;-81
2021/12/20 05:29:32;;;;;;;3.25;0.80;;;;;;;0.65;81.01;102179.88;5036753;28;20100;-80
2021/12/20 05:31:58;;;;;;;2.92;1.10;;;;;;;0.63;81.51;102177.41;5022274;28;20523;-80
2021/12/20 05:34:24;;;;;;;4.45;0.90;;;;;;;0.62;81.17;102181.00;5016789;28;20052;-80
2021/12/20 05:36:49;;;;;;;5.90;0.80;;;;;;;0.58;81.36;102179.66;5022171;28;20025;-80
2021/12/20 05:39:15;;;;;;;3.67;0.68;;;;;;;0.57;81.37;102185.91;5043637;28;20025;-81
2021/12/20 05:41:41;;;;;;;1.70;0.70;;;;;;;0.52;81.22;102188.13;5019265;28;20026;-80
2021/12/20 05:44:07;;;;;;;4.30;0.82;;;;;;;0.45;81.52;102189.72;5020867;28;20044;-81
2021/12/20 05:46:32;;;;;;;5.05;0.85;;;;;;;0.49;81.91;102185.78;5018952;28;20029;-81
2021/12/20 05:48:58;;;;;;;5.97;0.95;;;;;;;0.45;81.87;102187.91;5014115;28;20021;-81
2021/12/20 05:51:24;;;;;;;3.70;0.70;;;;;;;0.43;82.03;102191.66;5015975;28;20113;-81
2021/12/20 05:53:50;;;;;;;3.42;0.85;;;;;;;0.35;82.26;102189.75;5019005;28;20048;-81
2021/12/20 05:56:16;;;;;;;6.93;0.85;;;;;;;0.27;82.64;102190.47;5012472;28;20042;-80
2021/12/20 05:58:41;;;;;;;3.17;0.70;;;;;;;0.16;83.11;102197.72;5019474;28;20017;-80
2021/12/20 06:01:07;;;;;;;9.73;1.23;;;;;;;0.19;83.02;102195.66;5016229;28;20117;-80
2021/12/20 06:03:32;;;;;;;3.30;1.27;;;;;;;0.25;83.04;102192.44;5020795;28;20095;-81
2021/12/20 06:05:58;;;;;;;2.85;0.70;;;;;;;0.24;82.87;102195.22;5024720;28;20040;-80
2021/12/20 06:08:23;;;;;;;5.00;0.88;;;;;;;0.33;83.00;102206.69;5026098;28;21854;-81
2021/12/20 06:10:49;;;;;;;4.32;0.70;;;;;;;0.33;82.94;102211.97;5021184;28;20040;-80
2021/12/20 06:13:15;;;;;;;2.10;0.52;;;;;;;0.41;82.69;102220.00;5015444;28;20056;-79
2021/12/20 06:15:40;;;;;;;1.75;0.65;;;;;;;0.33;82.53;102217.22;5018513;28;20029;-80
2021/12/20 06:18:06;;;;;;;4.93;1.02;;;;;;;0.34;82.72;102211.81;5017619;28;20385;-80
2021/12/20 06:20:31;;;;;;;3.97;0.77;;;;;;;0.39;82.62;102214.03;5026138;28;20037;-80
2021/12/20 06:22:56;;;;;;;3.53;0.70;;;;;;;0.40;82.83;102218.31;5047766;28;20025;-80
2021/12/20 06:25:22;;;;;;;5.40;0.82;;;;;;;0.35;82.85;102221.38;5033509;28;20033;-80
2021/12/20 06:27:48;;;;;;;2.75;0.70;;;;;;;0.38;82.53;102215.84;5029855;28;20028;-80
2021/12/20 06:30:14;;;;;;;2.00;1.08;;;;;;;0.42;82.49;102217.19;5026711;28;20025;-80
2021/12/20 06:32:42;;;;;;;3.05;0.68;;;;;;;0.42;82.38;102227.75;5030558;28;20115;-80
2021/12/20 06:35:08;;;;;;;1.63;0.90;;;;;;;0.39;82.18;102221.94;5023586;28;20028;-81
2021/12/20 06:37:34;;;;;;;4.70;0.88;;;;;;;0.32;82.85;102228.75;5028449;28;20032;-80
2021/12/20 06:40:00;;;;;;;2.60;0.88;;;;;;;0.30;82.89;102231.53;5032464;28;20029;-80
2021/12/20 06:42:26;;;;;;;1.38;0.70;;;;;;;0.34;82.83;102235.53;5028782;28;20186;-80
2021/12/20 06:44:52;;;;;;;6.18;0.90;;;;;;;0.41;82.59;102241.09;5016562;28;20069;-79
2021/12/20 06:47:20;;;;;;;2.45;0.88;;;;;;;0.43;82.45;102245.22;5020604;28;20029;-79
2021/12/20 06:49:46;;;;;;;1.35;0.70;;;;;;;0.43;82.20;102249.69;5009772;28;20042;-80
2021/12/20 06:52:12;;;;;;;5.65;0.70;;;;;;;0.47;82.26;102249.22;5024586;28;20075;-79
2021/12/20 06:54:37;;;;;;;4.55;1.05;;;;;;;0.36;82.58;102254.72;5016319;28;20026;-79
2021/12/20 06:57:04;;;;;;;2.22;0.70;;;;;;;0.34;82.66;102254.00;5015665;28;20056;-80
2021/12/20 06:59:29;;;;;;;4.80;0.68;;;;;;;0.37;82.68;102255.53;5020382;28;20033;-79
2021/12/20 07:01:55;;;;;;;2.47;0.85;;;;;;;0.36;82.79;102265.25;5014234;28;20397;-79
2021/12/20 07:04:21;;;;;;;1.33;0.73;;;;;;;0.37;82.72;102252.91;5033519;28;20033;-79
2021/12/20 07:06:47;;;;;;;4.30;0.80;;;;;;;0.43;82.40;102273.41;5016742;28;20029;-79
2021/12/20 07:09:13;;;;;;;4.80;1.10;;;;;;;0.42;82.58;102274.38;5021030;28;20018;-80
2021/12/20 07:11:40;;;;;;;4.93;0.98;;;;;;;0.32;82.54;102273.56;5031843;28;20120;-80
2021/12/20 07:14:06;;;;;;;4.03;0.80;;;;;;;0.26;83.02;102281.09;5012103;28;20018;-79
2021/12/20 07:16:33;;;;;;;6.22;0.90;;;;;;;0.33;82.74;102281.34;5021213;28;20040;-77
2021/12/20 07:19:00;;;;;;;1.90;0.77;;;;;;;0.37;83.26;102284.53;5008770;28;20033;-77
2021/12/20 07:21:26;;;;;;;4.65;0.75;;;;;;;0.39;83.07;102283.41;5039357;28;20028;-77
2021/12/20 07:23:51;;;;;;;4.97;1.17;;;;;;;0.37;83.26;102284.53;5014105;28;20136;-77
2021/12/20 07:26:17;;;;;;;3.88;0.82;;;;;;;0.32;83.84;102279.66;5024632;28;20021;-77
2021/12/20 07:28:43;;;;;;;5.38;0.80;;;;;;;0.33;83.54;102291.88;5023611;28;20028;-77
2021/12/20 07:31:11;;;;;;;1.35;0.60;;;;;;;0.45;83.42;102287.28;5016186;28;20113;-77
2021/12/20 07:33:38;;;;;;;4.15;0.80;;;;;;;0.45;83.65;102279.38;5029243;28;20370;-76
2021/12/20 07:36:04;;;;;;;2.90;0.57;;;;;;;0.48;83.73;102295.72;5016217;28;20025;-77
2021/12/20 07:38:30;;;;;;;1.00;0.80;;;;;;;0.58;83.08;102303.63;5022193;28;20029;-77
2021/12/20 07:40:57;;;;;;;3.58;0.80;;;;;;;0.63;82.88;102306.63;5031633;28;20385;-78
2021/12/20 07:43:23;;;;;;;1.98;0.80;;;;;;;0.66;82.75;102308.97;5017951;28;20038;-78
2021/12/20 07:45:49;;;;;;;1.70;0.77;;;;;;;0.70;82.84;102310.34;5015570;28;20022;-77
2021/12/20 07:48:18;;;;;;;4.28;1.05;;;;;;;0.80;82.40;102315.59;5013479;28;20125;-78
2021/12/20 07:50:45;;;;;;;5.00;0.85;;;;;;;0.76;82.57;102315.06;5012371;28;20487;-78
2021/12/20 07:53:10;;;;;;;2.13;0.65;;;;;;;0.78;82.32;102320.19;5025075;28;20021;-77
2021/12/20 07:55:36;;;;;;;1.75;0.90;;;;;;;0.81;81.95;102320.72;5015438;28;20025;-78
2021/12/20 07:58:02;;;;;;;3.50;0.98;;;;;;;0.74;82.58;102321.47;5013551;28;20389;-78
2021/12/20 08:00:28;;;;;;;4.05;0.80;;;;;;;0.70;82.73;102318.25;5021200;28;20104;-78
2021/12/20 08:02:54;;;;;;;1.95;0.80;;;;;;;0.63;82.94;102325.09;5018770;28;20049;-78
2021/12/20 08:05:20;;;;;;;1.80;0.77;;;;;;;0.63;83.20;102324.28;5022748;28;20431;-77
2021/12/20 08:07:50;;;;;;;2.53;0.82;;;;;;;0.60;83.25;102330.69;5023220;28;20032;-78
2021/12/20 08:10:17;;;;;;;2.60;0.85;;;;;;;0.58;83.42;102333.47;5033981;28;20028;-78
2021/12/20 08:12:43;;;;;;;5.00;0.88;;;;;;;0.65;83.32;102331.06;5042896;28;20269;-78
2021/12/20 08:15:09;;;;;;;2.40;0.60;;;;;;;0.68;82.84;102338.69;5020529;28;20079;-77
2021/12/20 08:17:34;;;;;;;6.82;1.48;;;;;;;0.76;82.51;102336.19;5019823;28;20473;-77
2021/12/20 08:20:00;;;;;;;2.45;1.15;;;;;;;0.79;82.39;102341.16;5024161;28;20029;-78
2021/12/20 08:22:25;;;;;;;3.85;0.90;;;;;;;0.86;82.60;102336.13;5038642;28;20017;-77
2021/12/20 08:24:52;;;;;;;4.20;0.80;;;;;;;0.94;82.49;102343.31;5014030;28;20409;-77
2021/12/20 08:27:18;;;;;;;5.03;1.17;;;;;;;0.97;82.22;102335.09;5012957;28;20029;-77
2021/12/20 08:29:44;;;;;;;2.50;1.20;;;;;;;0.92;82.81;102345.28;5035040;28;20110;-77
2021/12/20 08:32:09;;;;;;;2.58;1.08;;;;;;;1.03;82.54;102347.72;5017992;28;20045;-77
2021/12/20 08:34:35;;;;;;;5.10;1.75;;;;;;;1.12;81.95;102354.75;5029661;28;20028;-77
2021/12/20 08:37:01;;;;;;;3.70;1.13;;;;;;;1.20;81.97;102354.84;5012941;28;20051;-77
2021/12/20 08:39:29;;;;;;;1.52;0.80;;;;;;;1.27;81.50;102355.09;5020723;28;20025;-77
2021/12/20 08:41:55;;;;;;;5.47;1.08;;;;;;;1.23;81.79;102361.63;5037976;28;20061;-78
2021/12/20 08:44:20;;;;;;;3.35;1.00;;;;;;;1.22;81.87;102363.44;5017341;28;20115;-78
2021/12/20 08:46:46;;;;;;;6.13;1.67;;;;;;;1.28;81.65;102372.63;5018344;28;20047;-78
2021/12/20 08:49:12;;;;;;;5.28;1.42;;;;;;;1.28;82.06;102370.81;5014017;28;20032;-77
2021/12/20 08:51:38;;;;;;;1.10;0.70;;;;;;;1.33;82.32;102373.00;5020091;28;20485;-78
2021/12/20 08:54:05;;;;;;;3.03;0.80;;;;;;;1.32;82.20;102366.06;5019688;28;20033;-78
2021/12/20 08:56:30;;;;;;;3.75;1.33;;;;;;;1.32;82.02;102368.69;5017430;28;20037;-78
2021/12/20 08:58:56;;;;;;;5.25;1.45;;;;;;;1.25;82.15;102370.25;5016825;28;20048;-78
2021/12/20 09:01:22;;;;;;;2.35;1.15;;;;;;;1.22;82.45;102374.00;5014269;28;20103;-78
2021/12/20 09:03:47;;;;;;;5.07;1.25;;;;;;;1.28;82.77;102377.91;5010550;28;20432;-77
2021/12/20 09:06:13;;;;;;;3.72;0.90;;;;;;;1.36;82.53;102386.72;5005653;28;20017;-77
2021/12/20 09:08:40;;;;;;;0.88;0.70;;;;;;;1.42;82.82;102383.50;5024608;28;20021;-77
2021/12/20 09:11:06;;;;;;;4.88;1.60;;;;;;;1.43;82.79;102387.78;5033686;28;20028;-77
2021/12/20 09:13:32;;;;;;;11.32;1.33;;;;;;;1.51;82.74;102385.25;5022677;28;20025;-77
2021/12/20 09:15:59;;;;;;;3.00;0.85;;;;;;;1.59;82.74;102391.59;5015629;28;20060;-77
2021/12/20 09:18:29;;;;;;;3.22;0.80;;;;;;;1.72;82.09;102394.72;5012709;28;20417;-77
2021/12/20 09:20:56;;;;;;;4.00;1.20;;;;;;;1.77;82.17;102395.09;5035213;28;20041;-77
2021/12/20 09:23:22;;;;;;;4.85;0.88;;;;;;;1.75;82.10;102397.06;5018137;28;20092;-77
2021/12/20 09:25:48;;;;;;;5.25;1.10;;;;;;;1.83;82.28;102401.59;5012248;28;20029;-77
2021/12/20 09:28:14;;;;;;;3.08;1.10;;;;;;;1.96;81.65;102412.63;5020954;28;20029;-77
2021/12/20 09:30:43;;;;;;;4.43;1.08;;;;;;;2.02;81.69;102402.28;5028596;28;20400;-77
2021/12/20 09:33:09;;;;;;;2.40;1.08;;;;;;;2.17;81.15;102399.94;5019781;28;20360;-78
2021/12/20 09:35:35;;;;;;;3.42;1.10;;;;;;;2.26;80.87;102408.75;5029087;28;20037;-77
2021/12/20 09:38:05;;;;;;;2.45;1.00;;;;;;;2.30;80.94;102404.81;5030561;28;20103;-77
2021/12/20 09:40:36;;;;;;;3.90;1.08;;;;;;;2.27;80.64;102407.78;5031437;28;20042;-77
2021/12/20 09:43:06;;;;;;;2.30;0.80;;;;;;;2.18;80.84;102403.41;5019514;28;20532;-77
2021/12/20 09:45:32;;;;;;;8.88;1.40;;;;;;;2.20;80.93;102401.44;5012995;28;20038;-77
2021/12/20 09:47:58;;;;;;;3.63;1.25;;;;;;;2.26;81.40;102412.22;5014044;28;20608;-77
2021/12/20 09:50:24;;;;;;;7.00;1.27;;;;;;;2.35;81.10;102421.09;5011963;28;20139;-77
2021/12/20 09:52:50;;;;;;;4.72;1.63;;;;;;;2.49;81.05;102417.88;5015040;28;20473;-77
2021/12/20 09:55:16;;;;;;;5.10;1.00;;;;;;;2.57;80.62;102428.53;5013242;28;20172;-77
2021/12/20 09:57:45;;;;;;;5.22;0.88;;;;;;;2.67;80.80;102426.59;5023944;28;20021;-77
2021/12/20 10:00:13;;;;;;;6.07;1.70;;;;;;;2.84;80.41;102426.69;5018830;28;20033;-77
2021/12/20 10:02:44;;;;;;;8.70;3.13;;;;;;;2.89;79.90;102429.75;5035940;28;20028;-77
2021/12/20 10:05:15;;;;;;;10.13;2.78;;;;;;;2.89;79.57;102429.75;5013271;28;20390;-77
2021/12/20 10:07:41;;;;;;;9.70;2.63;;;;;;;2.96;79.68;102436.06;5010882;28;20017;-77
2021/12/20 10:10:10;;;;;;;5.85;2.03;;;;;;;2.96;79.85;102444.00;5018921;28;20036;-77
2021/12/20 10:12:48;;;;;;;5.50;1.50;;;;;;;2.94;79.45;102443.31;5014855;28;20191;-77
2021/12/20 10:15:15;;;;;;;2.83;1.10;;;;;;;3.00;79.71;102432.09;5016625;28;20112;-77
2021/12/20 10:17:59;;;;;;;3.45;0.85;;;;;;;3.00;79.52;102438.22;5016574;28;20511;-77
2021/12/20 10:20:27;;;;;;;3.63;1.10;;;;;;;3.09;79.54;102428.53;5025995;28;20029;-77
2021/12/20 10:23:06;;;;;;;2.40;1.00;;;;;;;3.10;79.24;102435.47;5013426;28;20111;-77
2021/12/20 10:25:32;;;;;;;1.98;0.98;;;;;;;3.17;79.65;102436.50;5034640;28;20036;-77
2021/12/20 10:28:18;;;;;;;1.58;0.93;;;;;;;3.26;79.08;102435.56;5021927;28;20025;-77
2021/12/20 10:31:12;;;;;;;2.88;1.05;;;;;;;3.28;78.41;102438.06;5015203;28;20524;-77
2021/12/20 10:33:39;;;;;;;2.42;0.80;;;;;;;3.29;78.74;102437.88;5016565;28;20044;-77
2021/12/20 10:36:13;;;;;;;1.15;0.68;;;;;;;3.30;78.88;102436.06;5031951;28;20044;-77
2021/12/20 10:38:49;;;;;;;3.42;1.17;;;;;;;3.30;78.69;102436.91;5014207;28;20029;-77
2021/12/20 10:41:16;;;;;;;2.90;0.93;;;;;;;3.33;78.55;102438.38;5008497;28;20025;-77
2021/12/20 10:43:51;;;;;;;2.65;0.90;;;;;;;3.39;78.67;102432.44;5030191;28;20379;-78
2021/12/20 10:46:24;;;;;;;2.97;0.98;;;;;;;3.33;78.45;102444.53;5004987;28;20036;-77
2021/12/20 10:48:52;;;;;;;1.77;0.88;;;;;;;3.33;78.41;102433.09;5018980;28;20124;-77
2021/12/20 10:51:24;;;;;;;5.95;0.77;;;;;;;3.32;78.63;102447.34;5015157;28;20052;-77
2021/12/20 10:53:58;;;;;;;3.75;0.80;;;;;;;3.28;78.29;102449.47;5022112;28;20030;-78
2021/12/20 10:56:23;;;;;;;0.68;0.50;;;;;;;3.31;78.84;102450.97;5018350;28;20581;-78
2021/12/20 10:58:50;;;;;;;3.13;0.90;;;;;;;3.38;78.55;102446.69;5021954;28;20124;-77
2021/12/20 11:04:23;;;;;;;1.23;0.60;;;;;;;3.63;77.23;102445.81;5035597;28;20036;-77
2021/12/20 11:09:24;;;;;;;2.33;0.88;;;;;;;3.86;76.18;102451.31;5035887;28;20401;-78
2021/12/20 11:11:56;;;;;;;2.10;0.80;;;;;;;4.00;76.01;102443.75;5040809;28;20413;-77
2021/12/20 11:14:34;;;;;;;0.88;0.45;;;;;;;4.23;75.90;102456.19;5017191;28;20025;-77
2021/12/20 11:17:03;;;;;;;0.98;0.65;;;;;;;4.43;74.80;102455.88;5011396;28;20037;-78
2021/12/20 11:19:36;;;;;;;1.67;0.70;;;;;;;4.55;74.37;102451.91;5037554;28;20539;-77
2021/12/20 11:22:07;;;;;;;3.58;0.70;;;;;;;4.63;74.15;102449.22;5033625;28;20025;-78
2021/12/20 11:24:37;;;;;;;5.07;1.00;;;;;;;4.75;73.77;102452.38;5025466;28;20034;-77
2021/12/20 11:27:06;;;;;;;5.68;1.05;;;;;;;4.80;74.00;102458.00;5033414;28;20032;-78
2021/12/20 11:29:33;;;;;;;1.90;0.85;;;;;;;4.66;73.62;102445.41;5014225;28;20052;-77
2021/12/20 11:32:00;;;;;;;2.33;0.90;;;;;;;4.51;73.88;102448.75;5030712;28;20071;-77
2021/12/20 11:34:27;;;;;;;2.08;0.77;;;;;;;4.64;74.42;102447.41;5013314;28;20033;-77
2021/12/20 11:36:55;;;;;;;1.02;0.60;;;;;;;4.71;73.75;102457.19;5049915;22;20106;-49
2021/12/20 11:39:20;;;;;;;1.60;1.08;;;;;;;4.65;73.83;102457.84;5060315;28;20047;-48
2021/12/20 11:41:46;;;;;;;4.35;0.77;;;;;;;4.47;73.90;102450.06;5061284;28;20029;-47
2021/12/20 11:44:19;;;;;;;5.25;0.70;;;;;;;4.58;74.33;102445.44;5058394;28;20028;-49
2021/12/20 11:47:07;;;;;;;1.30;0.80;;;;;;;4.94;73.57;102441.38;5056412;28;20025;-48
2021/12/20 11:49:33;;;;;;;2.17;0.85;;;;;;;5.27;72.64;102446.63;5065118;22;20044;-74
2021/12/20 11:52:05;;;;;;;2.17;0.63;;;;;;;5.49;71.11;102447.69;5048378;28;20114;-74